Latest Weather Observations for Esperance Airport

IDW60801

Issued at 12:05 pm WST Saturday 25 October 2014 (issued every 30 minutes, with the page automatically refreshed every 10 minutes)

About weather observations | Map of weather stations | Latest weather observations for WA | Other Formats
Station Details ID: 009542 Name: ESPERANCE AERO Lat: -33.68 Lon: 121.83 Height: 142.0 m
Data from the previous 72 hours. | See also: Recent months at Esperance Airport
Date/Time
WST
Temp
°C
App
Temp
°C
Dew
Point
Rel
Hum
%
Delta-T
°C
Wind Press
QNH
hPa
Press
MSL
hPa
Rain
since 9 am
mm
Dir
 
Spd
km/h
Gust
km/h
Spd
kts
Gust
kts
25/12:00pm 21.7 17.7 16.2 71 3.3 SSW 32 43 17 23 1012.7 1012.5 0.0
25/11:30am 23.8 21.4 17.3 67 4.1 S 26 33 14 18 1012.2 1012.0 0.0
25/11:29am 23.2 20.0 16.3 65 4.2 S 28 33 15 18 1012.2 1012.0 0.0
25/11:00am 28.4 26.2 15.0 44 8.2 WNW 20 30 11 16 1011.9 1011.7 0.0
25/10:30am 27.5 25.7 14.5 45 7.9 NW 17 22 9 12 1012.3 1012.1 0.0
25/10:00am 26.5 24.9 14.9 49 7.0 N 17 24 9 13 1012.6 1012.4 0.0
25/09:30am 25.5 23.8 14.6 51 6.5 NNW 17 24 9 13 1013.0 1012.8 0.0
25/09:00am 24.6 22.6 15.0 55 5.8 NNW 19 24 10 13 1013.5 1013.3 0.0
25/08:30am 22.9 21.5 14.5 59 5.0 N 15 20 8 11 1013.7 1013.5 0.0
25/08:00am 20.4 17.5 14.1 67 3.7 N 22 32 12 17 1013.6 1013.4 0.0
25/07:30am 19.1 17.2 14.1 73 2.9 N 17 24 9 13 1013.8 1013.6 0.0
25/07:00am 17.1 14.7 13.8 81 1.9 N 19 28 10 15 1013.6 1013.4 0.0
25/06:30am 15.5 12.9 13.9 90 0.9 NNE 20 28 11 15 1013.7 1013.5 0.0
25/06:00am 14.1 11.0 13.5 96 0.3 NNE 22 30 12 16 1013.7 1013.5 0.0
25/05:30am 13.5 10.8 13.0 97 0.3 NNE 19 26 10 14 1013.9 1013.7 0.0
25/05:00am 13.3 11.0 13.0 98 0.2 NNE 17 24 9 13 1014.0 1013.8 0.0
25/04:30am 13.4 11.1 13.1 98 0.2 NNE 17 26 9 14 1014.2 1014.0 0.0
25/04:00am 13.4 10.8 13.1 98 0.2 NNE 19 26 10 14 1014.2 1014.0 0.0
25/03:30am 13.4 10.5 12.9 97 0.3 NNE 20 26 11 14 1014.2 1014.0 0.0
25/03:00am 13.5 10.6 13.0 97 0.3 NNE 20 28 11 15 1014.3 1014.1 0.0
25/02:30am 13.5 11.3 13.2 98 0.2 NNE 17 30 9 16 1014.2 1014.0 0.0
25/02:03am 13.7 11.5 13.4 98 0.2 NE 17 22 9 12 1014.2 1014.0 0.0
25/02:00am 13.7 11.5 13.4 98 0.2 NE 17 24 9 13 1014.3 1014.1 0.0
25/01:30am 13.9 11.2 13.6 98 0.2 NE 20 30 11 16 1014.3 1014.1 0.0
25/01:00am 13.9 11.4 13.6 98 0.2 NE 19 28 10 15 1014.4 1014.3 0.0
25/12:30am 13.6 11.0 13.3 98 0.2 ENE 19 28 10 15 1014.6 1014.5 0.0
25/12:00am 13.5 11.3 13.2 98 0.2 E 17 26 9 14 1015.0 1014.9 0.0
 
Date/Time
WST
Temp
°C
App
Temp
°C
Dew
Point
Rel
Hum
%
Delta-T
°C
Wind Press
QNH
hPa
Press
MSL
hPa
Rain
since 9 am
mm
Dir
 
Spd
km/h
Gust
km/h
Spd
kts
Gust
kts
24/11:47pm 13.4 10.8 13.1 98 0.2 E 19 30 10 16 1015.1 1015.0 0.0
24/11:30pm 13.3 10.6 12.8 97 0.3 E 19 28 10 15 1015.2 1015.1 0.0
24/11:00pm 13.5 10.8 12.9 96 0.3 E 19 28 10 15 1015.5 1015.4 0.0
24/10:30pm 13.8 10.9 13.0 95 0.4 E 20 28 11 15 1015.9 1015.8 0.0
24/10:00pm 14.1 11.3 13.1 94 0.6 E 20 28 11 15 1016.2 1016.1 0.0
24/09:30pm 14.3 11.2 13.3 94 0.6 E 22 32 12 17 1016.3 1016.2 0.0
24/09:00pm 14.4 11.3 13.4 94 0.6 E 22 32 12 17 1016.7 1016.5 0.0
24/08:30pm 14.6 11.5 13.5 93 0.6 E 22 28 12 15 1016.8 1016.6 0.0
24/08:00pm 14.8 12.2 13.7 93 0.6 E 20 26 11 14 1016.9 1016.7 0.0
24/07:30pm 14.7 12.1 13.7 94 0.6 ESE 20 26 11 14 1016.8 1016.6 0.0
24/07:00pm 15.2 11.8 13.7 91 0.8 ESE 24 30 13 16 1016.6 1016.4 0.0
24/06:30pm 15.9 12.6 13.9 88 1.1 ESE 24 28 13 15 1016.3 1016.2 0.0
24/06:00pm 16.9 13.6 14.0 83 1.7 ESE 24 32 13 17 1016.3 1016.2 0.0
24/05:30pm 18.3 14.7 14.2 77 2.4 ESE 26 32 14 17 1016.1 1016.0 0.0
24/05:00pm 19.7 16.7 14.7 73 2.9 SE 24 32 13 17 1016.0 1015.9 0.0
24/04:30pm 19.6 16.6 14.8 74 2.8 SSE 24 32 13 17 1016.0 1015.9 0.0
24/04:00pm 19.7 16.3 14.7 73 2.9 SSE 26 35 14 19 1016.1 1016.0 0.0
24/03:30pm 19.9 16.9 14.7 72 3.1 SE 24 32 13 17 1016.3 1016.2 0.0
24/03:00pm 20.2 17.2 14.8 71 3.2 SE 24 32 13 17 1016.7 1016.5 0.0
24/02:30pm 20.9 19.1 15.4 71 3.3 SE 19 26 10 14 1016.9 1016.7 0.0
24/02:00pm 20.5 18.3 14.4 68 3.6 SE 19 26 10 14 1017.3 1017.1 0.0
24/01:30pm 20.6 18.4 14.5 68 3.6 SSE 19 28 10 15 1017.4 1017.2 0.0
24/01:00pm 21.7 20.7 15.5 68 3.7 SE 15 20 8 11 1018.0 1017.8 0.0
24/12:30pm 20.2 19.3 14.8 71 3.2 SE 13 20 7 11 1018.2 1018.0 0.0
24/12:00pm 19.5 18.8 14.3 72 3.0 S 11 17 6 9 1018.4 1018.2 0.0
24/11:30am 18.5 17.5 14.6 78 2.3 SE 13 19 7 10 1018.7 1018.5 0.0
24/11:00am 18.5 17.7 15.2 81 1.9 ESE 13 19 7 10 1018.7 1018.5 0.0
24/10:45am 18.5 18.3 15.7 84 1.7 ESE 11 19 6 10 1019.0 1018.8 0.0
24/10:30am 17.5 17.2 15.5 88 1.2 SE 11 15 6 8 1019.1 1018.9 0.0
24/10:17am 16.9 16.3 15.6 92 0.8 SE 13 17 7 9 1019.3 1019.1 0.0
24/10:00am 16.6 15.8 16.1 97 0.3 SE 15 17 8 9 1019.4 1019.2 0.0
24/09:30am 15.8 15.4 15.2 96 0.3 SE 11 15 6 8 1019.5 1019.3 0.0
24/09:00am 15.9 15.6 15.4 97 0.3 SE 11 15 6 8 1019.3 1019.1 0.8
24/08:30am 15.4 15.3 14.9 97 0.3 SSE 9 13 5 7 1019.2 1019.0 0.8
24/08:00am 15.2 14.6 14.6 96 0.3 SW 11 13 6 7 1019.1 1018.9 0.4
24/07:50am 15.4 14.8 14.6 95 0.5 SSW 11 15 6 8 1019.0 1018.8 0.2
24/07:44am 15.5 15.1 14.2 92 0.7 WSW 9 15 5 8 1019.0 1018.8 0.2
24/07:31am 16.0 15.5 14.9 93 0.6 WSW 11 15 6 8 1019.0 1018.8 0.0
24/07:30am 15.9 15.4 14.8 93 0.6 WSW 11 15 6 8 1019.0 1018.8 0.0
24/07:04am 15.8 15.8 15.3 97 0.3 SSW 9 13 5 7 1018.9 1018.7 0.0
24/07:00am 15.9 16.3 15.4 97 0.3 SW 7 9 4 5 1018.8 1018.6 0.0
24/06:40am 15.6 16.1 15.1 97 0.3 SW 6 7 3 4 1018.8 1018.6 0.0
24/06:30am 15.6 16.5 15.1 97 0.3 WSW 4 6 2 3 1018.7 1018.5 0.0
24/06:00am 15.3 16.1 14.8 97 0.3 SSW 4 6 2 3 1018.6 1018.4 0.0
24/05:59am 15.3 16.1 14.8 97 0.3 S 4 6 2 3 1018.5 1018.3 0.0
24/05:31am 15.1 15.2 14.5 96 0.3 S 7 9 4 5 1018.1 1017.9 0.0
24/05:30am 15.1 15.2 14.5 96 0.3 S 7 9 4 5 1018.1 1017.9 0.0
24/05:20am 15.1 15.2 14.5 96 0.3 S 7 9 4 5 1018.0 1017.8 0.0
24/05:00am 14.9 15.2 14.4 97 0.3 S 6 7 3 4 1018.0 1017.8 0.0
24/04:30am 14.9 14.3 14.6 98 0.2 S 11 15 6 8 1017.8 1017.6 0.0
24/04:00am 15.0 14.8 14.8 99 0.1 S 9 13 5 7 1017.6 1017.4 0.0
24/03:30am 15.0 14.5 14.8 99 0.1 SSW 11 15 6 8 1017.4 1017.2 0.0
24/03:26am 15.0 14.5 14.8 99 0.1 SSW 11 13 6 7 1017.4 1017.2 0.0
24/03:24am 15.0 14.5 14.8 99 0.1 SW 11 13 6 7 1017.4 1017.2 0.0
24/03:06am 14.9 15.1 14.7 99 0.1 SW 7 11 4 6 1017.3 1017.1 0.0
24/03:04am 14.9 14.7 14.7 99 0.1 SW 9 11 5 6 1017.3 1017.1 0.0
24/03:00am 14.9 15.1 14.7 99 0.1 WSW 7 11 4 6 1017.3 1017.1 0.0
24/02:30am 15.0 14.5 14.8 99 0.1 SW 11 15 6 8 1017.1 1016.9 0.0
24/02:00am 14.8 14.2 14.6 99 0.1 SW 11 13 6 7 1016.9 1016.7 0.0
24/01:30am 14.6 14.3 14.4 99 0.1 SW 9 13 5 7 1016.9 1016.7 0.0
24/01:00am 14.5 14.2 14.3 99 0.1 SW 9 13 5 7 1016.9 1016.7 0.0
24/12:57am 14.4 13.7 14.2 99 0.1 SW 11 13 6 7 1016.9 1016.7 0.0
24/12:30am 14.8 14.6 14.6 99 0.1 WSW 9 11 5 6 1016.9 1016.7 0.0
24/12:07am 14.4 14.0 14.2 99 0.1 WNW 9 11 5 6 1017.0 1016.8 0.0
24/12:00am 13.9 13.4 13.7 99 0.1 WNW 9 11 5 6 1017.0 1016.8 0.0
 
Date/Time
WST
Temp
°C
App
Temp
°C
Dew
Point
Rel
Hum
%
Delta-T
°C
Wind Press
QNH
hPa
Press
MSL
hPa
Rain
since 9 am
mm
Dir
 
Spd
km/h
Gust
km/h
Spd
kts
Gust
kts
23/11:54pm 13.4 12.7 13.2 99 0.1 WNW 9 11 5 6 1017.0 1016.8 0.0
23/11:30pm 13.8 13.2 13.6 99 0.1 WNW 9 11 5 6 1017.0 1016.8 0.0
23/11:00pm 14.5 14.2 14.3 99 0.1 W 9 11 5 6 1017.0 1016.8 0.0
23/10:30pm 14.6 14.3 14.4 99 0.1 WSW 9 11 5 6 1016.9 1016.7 0.0
23/10:00pm 15.2 14.4 15.0 99 0.1 WSW 13 17 7 9 1016.8 1016.6 0.0
23/09:30pm 15.1 14.2 14.8 98 0.2 W 13 17 7 9 1016.9 1016.7 0.0
23/09:00pm 15.3 14.4 14.8 97 0.3 WSW 13 15 7 8 1016.8 1016.6 0.0
23/08:30pm 15.6 14.7 14.8 95 0.5 WSW 13 15 7 8 1016.5 1016.3 0.0
23/08:00pm 16.2 15.8 15.1 93 0.6 WSW 11 15 6 8 1016.1 1016.0 0.0
23/07:30pm 16.6 15.4 15.1 91 0.9 WSW 15 22 8 12 1015.7 1015.6 0.0
23/07:00pm 17.3 15.4 15.3 88 1.2 SW 19 24 10 13 1015.3 1015.2 0.0
23/06:30pm 17.3 15.6 14.8 85 1.5 SW 17 24 9 13 1014.6 1014.5 0.0
23/06:00pm 18.0 16.2 14.5 80 2.0 SW 17 22 9 12 1014.0 1013.8 0.0
23/05:30pm 19.6 14.7 13.8 69 3.3 SW 32 41 17 22 1013.4 1013.2 0.0
23/05:00pm 21.4 17.9 13.3 60 4.7 SW 24 32 13 17 1012.8 1012.6 0.0
23/04:30pm 21.9 17.2 13.3 58 5.0 SW 30 39 16 21 1012.4 1012.2 0.0
23/04:00pm 22.7 17.3 12.3 52 5.9 SW 32 39 17 21 1012.0 1011.8 0.0
23/03:30pm 24.1 19.4 13.3 51 6.3 SW 30 39 16 21 1011.7 1011.5 0.0
23/03:00pm 22.6 17.6 12.3 52 5.9 SW 30 39 16 21 1011.6 1011.4 0.0
23/02:30pm 24.2 20.0 13.4 51 6.3 SW 28 35 15 19 1011.3 1011.1 0.0
23/02:00pm 24.4 20.5 14.5 54 5.9 SW 28 37 15 20 1011.1 1010.9 0.0
23/01:30pm 24.5 20.1 14.0 52 6.2 SW 30 39 16 21 1011.0 1010.8 0.0
23/01:00pm 22.8 18.9 14.4 59 5.0 SW 28 39 15 21 1011.1 1010.9 0.0
23/12:30pm 24.0 17.9 11.7 46 7.0 W 35 50 19 27 1010.8 1010.6 0.0
23/12:00pm 24.5 18.0 10.4 41 7.9 W 35 50 19 27 1011.0 1010.8 0.0
23/11:30am 23.8 16.7 9.4 40 7.9 W 37 50 20 27 1011.1 1010.9 0.0
23/11:00am 23.9 17.3 9.9 41 7.7 W 35 46 19 25 1011.1 1010.9 0.0
23/10:32am 24.6 19.0 11.5 44 7.4 W 32 50 17 27 1011.4 1011.2 0.0
23/10:30am 23.9 18.0 11.2 44 7.2 W 33 50 18 27 1011.4 1011.2 0.0
23/10:27am 23.7 18.1 11.4 46 6.9 W 32 50 17 27 1011.5 1011.3 0.0
23/10:00am 23.5 18.3 11.5 47 6.8 W 30 44 16 24 1011.6 1011.4 0.0
23/09:30am 23.6 19.1 12.6 50 6.3 WNW 28 39 15 21 1011.8 1011.6 0.0
23/09:00am 22.5 17.0 12.4 52 5.8 W 33 44 18 24 1012.1 1011.9 0.0
23/08:30am 21.8 17.5 13.2 58 5.0 W 28 35 15 19 1012.1 1011.9 0.0
23/08:00am 20.2 15.2 13.9 67 3.7 WNW 33 44 18 24 1012.1 1011.9 0.0
23/07:30am 18.9 14.5 14.2 74 2.7 W 30 39 16 21 1012.0 1011.8 0.0
23/07:00am 17.8 14.9 15.1 84 1.6 WNW 24 37 13 20 1011.7 1011.5 0.0
23/06:30am 15.9 13.5 14.4 91 0.9 NW 20 26 11 14 1011.6 1011.4 0.0
23/06:00am 14.3 12.2 13.5 95 0.4 NW 17 22 9 12 1011.5 1011.3 0.0
23/05:30am 13.3 10.9 12.8 97 0.3 WNW 17 24 9 13 1011.5 1011.3 0.0
23/05:00am 13.5 11.6 12.9 96 0.3 NNE 15 19 8 10 1010.6 1010.4 0.0
23/04:30am 13.8 11.2 13.2 96 0.3 ENE 19 28 10 15 1010.0 1009.8 0.0
23/04:00am 13.7 11.9 13.2 97 0.3 ENE 15 22 8 12 1010.4 1010.2 0.0
23/03:30am 13.6 11.0 13.1 97 0.3 E 19 26 10 14 1010.9 1010.7 0.0
23/03:00am 14.0 11.5 13.4 96 0.3 E 19 22 10 12 1011.3 1011.1 0.0
23/02:30am 14.3 12.6 13.5 95 0.4 E 15 20 8 11 1011.7 1011.5 0.0
23/02:00am 14.3 13.0 13.7 96 0.3 E 13 19 7 10 1012.0 1011.8 0.0
23/01:30am 14.3 13.3 13.5 95 0.4 SE 11 13 6 7 1012.5 1012.3 0.0
23/01:00am 14.7 13.4 13.7 94 0.6 SSE 13 17 7 9 1012.7 1012.5 0.0
23/12:30am 15.2 13.9 13.6 90 0.9 S 13 17 7 9 1013.3 1013.1 0.0
23/12:00am 15.7 13.6 13.7 88 1.1 S 17 20 9 11 1012.8 1012.6 0.0
 
Date/Time
WST
Temp
°C
App
Temp
°C
Dew
Point
Rel
Hum
%
Delta-T
°C
Wind Press
QNH
hPa
Press
MSL
hPa
Rain
since 9 am
mm
Dir
 
Spd
km/h
Gust
km/h
Spd
kts
Gust
kts
22/11:30pm 16.9 14.4 14.0 83 1.7 SSW 20 26 11 14 1013.5 1013.3 0.0
22/11:00pm 16.5 13.6 14.0 85 1.4 NE 22 44 12 24 1012.0 1011.8 0.0
22/10:30pm 16.2 12.8 13.7 85 1.4 NE 24 39 13 21 1011.1 1010.9 0.0
22/10:00pm 16.6 13.3 13.9 84 1.5 NE 24 35 13 19 1012.0 1011.8 0.0
22/09:30pm 17.1 13.9 14.2 83 1.7 NE 24 37 13 20 1012.7 1012.5 0.0
22/09:00pm 17.7 15.4 14.6 82 1.8 NE 20 32 11 17 1013.6 1013.4 0.0
22/08:30pm 18.3 16.1 14.8 80 2.0 NE 20 35 11 19 1014.1 1013.9 0.0
22/08:00pm 18.9 17.0 15.2 79 2.2 ENE 19 28 10 15 1014.6 1014.5 0.0
22/07:30pm 19.6 17.4 15.0 75 2.7 ENE 20 32 11 17 1014.4 1014.3 0.0
22/07:00pm 21.0 19.7 14.9 68 3.6 ENE 15 22 8 12 1014.0 1013.8 0.0
22/06:30pm 21.6 20.3 14.7 65 4.1 ENE 15 20 8 11 1014.5 1014.4 0.0
22/06:00pm 22.6 20.9 14.7 61 4.7 ENE 17 26 9 14 1014.7 1014.6 0.0
22/05:30pm 23.4 22.1 14.9 59 5.1 NE 15 26 8 14 1015.2 1015.1 0.0
22/05:00pm 24.3 22.6 14.7 55 5.7 NE 17 28 9 15 1015.6 1015.5 0.0
22/04:30pm 24.8 23.1 14.6 53 6.1 NE 17 30 9 16 1015.7 1015.6 0.0
22/04:00pm 24.9 22.8 14.7 53 6.1 NE 19 28 10 15 1015.9 1015.8 0.0
22/03:30pm 25.2 22.9 14.6 51 6.4 ENE 20 35 11 19 1015.9 1015.8 0.0
22/03:00pm 25.4 23.0 14.5 51 6.5 ENE 20 32 11 17 1016.3 1016.2 0.0
22/02:30pm 25.5 23.6 15.2 53 6.2 ENE 19 28 10 15 1017.2 1017.0 0.0
22/02:00pm 24.7 22.6 15.1 55 5.8 ENE 20 33 11 18 1017.8 1017.6 0.0
22/01:30pm 24.5 22.5 15.4 57 5.5 E 20 30 11 16 1018.5 1018.3 0.0
22/01:00pm 23.9 22.3 14.9 57 5.4 ENE 17 28 9 15 1019.7 1019.5 0.0
22/12:30pm 22.8 21.5 14.9 61 4.7 NE 15 24 8 13 1020.4 1020.2 0.0

Other Formats:

Comma delimited format used in spreadsheet applications
http://www.bom.gov.au/fwo/IDW60801/IDW60801.95638.axf

JavaScript Object Notation format (JSON) in row-major order
http://www.bom.gov.au/fwo/IDW60801/IDW60801.95638.json